createdAt,value
2018-12-27T00:01:50.123Z,24.73
2018-12-27T00:06:51.835Z,25.63
2018-12-27T00:11:53.863Z,28.00
2018-12-27T00:16:57.344Z,29.57
2018-12-27T00:21:59.572Z,25.57
2018-12-27T00:27:04.189Z,28.43
2018-12-27T00:32:07.265Z,29.27
2018-12-27T00:37:09.672Z,21.10
2018-12-27T00:42:11.423Z,35.77
2018-12-27T00:47:13.357Z,36.00
2018-12-27T00:52:16.267Z,37.17
2018-12-27T00:57:18.398Z,40.47
2018-12-27T01:02:20.054Z,37.40
2018-12-27T01:07:22.298Z,29.23
2018-12-27T01:12:23.981Z,35.87
2018-12-27T01:17:25.848Z,35.77
2018-12-27T01:22:27.802Z,34.57
2018-12-27T01:27:29.602Z,31.93
2018-12-27T01:32:31.596Z,34.60
2018-12-27T01:37:33.505Z,25.07
2018-12-27T01:42:36.085Z,39.30
2018-12-27T01:47:37.861Z,32.00
2018-12-27T01:52:39.868Z,22.83
2018-12-27T01:57:41.627Z,28.23
2018-12-27T02:02:43.533Z,33.70
2018-12-27T02:07:45.541Z,27.00
2018-12-27T02:12:47.900Z,35.23
2018-12-27T02:17:50.319Z,31.63
2018-12-27T02:22:52.275Z,33.03
2018-12-27T02:27:54.261Z,31.40
2018-12-27T02:32:57.159Z,28.93
2018-12-27T02:37:59.902Z,32.07
2018-12-27T02:43:01.570Z,30.97
2018-12-27T02:48:03.881Z,24.00
2018-12-27T02:53:05.642Z,34.43
2018-12-27T02:58:07.972Z,30.27
2018-12-27T03:03:10.568Z,30.77
2018-12-27T03:08:12.825Z,29.97
2018-12-27T03:13:14.840Z,34.57
2018-12-27T03:18:16.844Z,36.37
2018-12-27T03:23:18.633Z,34.03
2018-12-27T03:28:20.408Z,30.97
2018-12-27T03:33:22.179Z,29.87
2018-12-27T03:38:23.948Z,27.13
2018-12-27T03:43:25.678Z,30.90
2018-12-27T03:48:27.717Z,34.47
2018-12-27T03:53:29.311Z,22.27
2018-12-27T03:58:31.317Z,34.83
2018-12-27T04:03:33.679Z,34.10
2018-12-27T04:08:35.450Z,32.50
2018-12-27T04:13:37.235Z,32.50
2018-12-27T04:18:39.029Z,28.93
2018-12-27T04:23:41.536Z,28.77
2018-12-27T04:28:43.296Z,31.23
2018-12-27T04:33:45.428Z,31.13
2018-12-27T04:38:47.202Z,34.70
2018-12-27T04:43:48.935Z,33.43
2018-12-27T04:48:50.636Z,32.07
2018-12-27T04:53:52.323Z,36.40
2018-12-27T04:58:53.977Z,35.93
2018-12-27T05:03:55.979Z,41.07
2018-12-27T05:08:57.634Z,36.37
2018-12-27T05:13:59.321Z,39.70
2018-12-27T05:19:01.035Z,34.03
2018-12-27T05:24:03.024Z,35.60
2018-12-27T05:29:04.741Z,31.53
2018-12-27T05:34:07.629Z,37.70
2018-12-27T05:39:09.862Z,35.30
2018-12-27T05:44:11.486Z,31.97
2018-12-27T05:49:15.438Z,38.33
2018-12-27T05:54:18.017Z,38.87
2018-12-27T05:59:20.033Z,48.80
2018-12-27T06:04:21.803Z,47.57
2018-12-27T06:09:23.572Z,48.23
2018-12-27T06:14:25.336Z,43.47
2018-12-27T06:19:27.100Z,66.30
2018-12-27T06:24:29.403Z,68.13
2018-12-27T06:29:31.291Z,71.40
2018-12-27T06:34:33.292Z,66.63
2018-12-27T06:39:35.059Z,51.87
2018-12-27T06:44:36.779Z,65.47
2018-12-27T06:49:38.535Z,75.30
2018-12-27T06:54:40.531Z,82.57
2018-12-27T06:59:42.227Z,50.87
2018-12-27T07:04:48.930Z,88.77
2018-12-27T07:09:47.418Z,85.90
2018-12-27T07:14:50.647Z,67.07
2018-12-27T07:19:52.784Z,77.80
2018-12-27T07:24:54.708Z,78.73
2018-12-27T07:29:56.466Z,80.67
2018-12-27T07:34:58.236Z,61.60
2018-12-27T07:39:59.973Z,72.73
2018-12-27T07:45:01.739Z,79.43
2018-12-27T07:50:05.073Z,75.00
2018-12-27T07:55:06.690Z,70.63
2018-12-27T08:00:08.468Z,80.77
2018-12-27T08:05:10.434Z,74.17
2018-12-27T08:10:12.501Z,77.73
2018-12-27T08:15:14.258Z,68.53
2018-12-27T08:20:17.458Z,65.63
2018-12-27T08:25:19.271Z,73.23
2018-12-27T08:30:21.521Z,74.57
2018-12-27T08:35:23.266Z,63.73
2018-12-27T08:40:25.017Z,72.80
2018-12-27T08:45:26.737Z,75.83
2018-12-27T08:50:28.552Z,75.70
2018-12-27T08:55:30.216Z,65.00
2018-12-27T09:00:31.936Z,59.37
2018-12-27T09:05:33.554Z,62.47
2018-12-27T09:10:35.262Z,83.77
2018-12-27T09:15:37.235Z,80.13
2018-12-27T09:20:38.944Z,71.10
2018-12-27T09:25:40.596Z,69.57
2018-12-27T09:30:42.538Z,70.50
2018-12-27T09:35:44.164Z,77.27
2018-12-27T09:40:45.837Z,73.30
2018-12-27T09:45:47.465Z,75.43
2018-12-27T09:50:49.398Z,61.90
2018-12-27T09:55:51.042Z,76.73
2018-12-27T10:00:52.945Z,74.60
2018-12-27T10:05:54.648Z,76.13
2018-12-27T10:10:56.667Z,77.80
2018-12-27T10:15:58.376Z,74.27
2018-12-27T10:21:01.721Z,66.53
2018-12-27T10:26:03.776Z,73.80
2018-12-27T10:31:05.777Z,66.60
2018-12-27T10:36:07.579Z,67.80
2018-12-27T10:41:09.650Z,69.43
2018-12-27T10:46:11.303Z,54.27
2018-12-27T10:51:13.008Z,60.07
2018-12-27T10:56:15.126Z,64.40
2018-12-27T11:01:16.808Z,57.43
2018-12-27T11:06:18.872Z,49.03
2018-12-27T11:11:21.063Z,53.17
2018-12-27T11:16:22.821Z,56.20
2018-12-27T11:21:26.311Z,52.30
2018-12-27T11:26:28.493Z,56.70
2018-12-27T11:31:34.659Z,58.90
2018-12-27T11:36:36.793Z,58.83
2018-12-27T11:41:38.426Z,56.77
2018-12-27T11:46:40.103Z,63.23
2018-12-27T11:51:42.373Z,66.30
2018-12-27T11:56:44.466Z,58.00
2018-12-27T12:01:46.223Z,56.60
2018-12-27T12:06:48.025Z,59.30
2018-12-27T12:11:50.341Z,58.20
2018-12-27T12:16:52.088Z,53.30
2018-12-27T12:21:53.846Z,52.97
2018-12-27T12:26:55.962Z,54.07
2018-12-27T12:31:57.715Z,48.33
2018-12-27T12:36:59.450Z,55.37
2018-12-27T12:42:01.212Z,56.10
2018-12-27T12:47:03.171Z,51.63
2018-12-27T12:52:04.996Z,58.90
2018-12-27T12:57:06.620Z,61.17
2018-12-27T13:02:08.287Z,55.33
2018-12-27T13:07:10.918Z,55.47
2018-12-27T13:12:13.001Z,57.23
2018-12-27T13:17:14.796Z,55.57
2018-12-27T13:22:16.567Z,56.50
2018-12-27T13:27:18.360Z,51.47
2018-12-27T13:32:20.142Z,53.93
2018-12-27T13:37:22.105Z,61.57
2018-12-27T13:42:24.194Z,62.03
2018-12-27T13:47:25.866Z,54.27
2018-12-27T13:52:27.584Z,56.00
2018-12-27T13:57:29.279Z,55.67
2018-12-27T14:02:30.875Z,58.13
2018-12-27T14:07:32.605Z,44.53
2018-12-27T14:12:34.613Z,54.03
2018-12-27T14:17:36.275Z,52.60
2018-12-27T14:22:37.895Z,42.27
2018-12-27T14:27:39.616Z,55.63
2018-12-27T14:32:41.505Z,48.80
2018-12-27T14:37:43.122Z,47.20
2018-12-27T14:42:44.800Z,48.10
2018-12-27T14:47:46.475Z,58.90
2018-12-27T14:52:48.235Z,61.27
2018-12-27T14:57:50.270Z,57.97
2018-12-27T15:02:52.873Z,52.27
2018-12-27T15:07:54.595Z,52.53
2018-12-27T15:12:56.767Z,54.20
2018-12-27T15:17:58.524Z,35.57
2018-12-27T15:23:00.275Z,45.43
2018-12-27T15:28:02.610Z,49.80
2018-12-27T15:33:04.359Z,43.53
2018-12-27T15:38:06.288Z,35.30
2018-12-27T15:43:08.025Z,35.37
2018-12-27T15:48:10.221Z,38.20
2018-12-27T15:53:11.984Z,38.17
2018-12-27T15:58:13.956Z,50.57
2018-12-27T16:03:15.608Z,39.97
2018-12-27T16:08:17.300Z,48.87
2018-12-27T16:13:19.560Z,47.23
2018-12-27T16:18:23.122Z,48.60
2018-12-27T16:23:25.337Z,40.13
2018-12-27T16:28:29.795Z,49.40
2018-12-27T16:33:35.207Z,47.87
2018-12-27T16:38:37.340Z,48.40
2018-12-27T16:43:39.389Z,50.10
2018-12-27T16:48:41.671Z,48.73
2018-12-27T16:53:44.007Z,49.00
2018-12-27T16:58:45.629Z,47.77
2018-12-27T17:03:47.312Z,48.80
2018-12-27T17:08:49.045Z,51.57
2018-12-27T17:13:51.347Z,48.87
2018-12-27T17:18:55.924Z,59.20
2018-12-27T17:24:00.173Z,54.77
2018-12-27T17:29:02.960Z,64.90
2018-12-27T17:34:05.152Z,78.13
2018-12-27T17:39:07.255Z,61.77
2018-12-27T17:44:09.269Z,67.43
2018-12-27T17:49:11.362Z,55.13
2018-12-27T17:54:13.120Z,46.87
2018-12-27T17:59:19.261Z,45.50
2018-12-27T18:04:21.467Z,46.07
2018-12-27T18:09:23.414Z,42.50
2018-12-27T18:14:25.519Z,44.87
2018-12-27T18:19:27.251Z,41.47
2018-12-27T18:24:29.223Z,48.90
2018-12-27T18:29:32.278Z,49.97
2018-12-27T18:34:34.306Z,41.50
2018-12-27T18:39:36.063Z,50.07
2018-12-27T18:44:38.166Z,54.13
2018-12-27T18:49:40.008Z,54.10
2018-12-27T18:54:41.853Z,44.43
2018-12-27T18:59:46.228Z,50.07
2018-12-27T19:04:50.831Z,53.90
2018-12-27T19:09:54.908Z,53.70
2018-12-27T19:15:00.423Z,53.73
2018-12-27T19:20:02.202Z,51.97
2018-12-27T19:25:04.948Z,52.40
2018-12-27T19:30:07.092Z,50.50
2018-12-27T19:35:10.557Z,56.07
2018-12-27T19:40:12.700Z,59.33
2018-12-27T19:45:14.866Z,60.83
2018-12-27T19:50:18.540Z,60.07
2018-12-27T19:55:22.660Z,48.73
2018-12-27T20:00:25.296Z,60.10
2018-12-27T20:05:29.708Z,71.27
2018-12-27T20:10:31.651Z,55.40
2018-12-27T20:15:33.681Z,59.10
2018-12-27T20:20:35.756Z,53.80
2018-12-27T20:25:38.512Z,45.43
2018-12-27T20:30:40.358Z,45.47
2018-12-27T20:35:42.675Z,48.30
2018-12-27T20:40:44.336Z,47.60
2018-12-27T20:45:46.028Z,48.90
2018-12-27T20:50:47.764Z,47.73
2018-12-27T20:55:49.448Z,38.87
2018-12-27T21:00:51.109Z,43.20
2018-12-27T21:05:53.026Z,40.90
2018-12-27T21:10:54.787Z,39.67
2018-12-27T21:15:56.780Z,38.07
2018-12-27T21:20:58.804Z,34.27
2018-12-27T21:26:01.058Z,37.50
2018-12-27T21:31:02.753Z,38.90
2018-12-27T21:36:04.438Z,35.13
2018-12-27T21:41:06.390Z,32.20
2018-12-27T21:46:08.072Z,33.23
2018-12-27T21:51:09.727Z,32.17
2018-12-27T21:56:11.411Z,36.00
2018-12-27T22:01:13.062Z,33.97
2018-12-27T22:06:14.735Z,31.83
2018-12-27T22:11:16.481Z,31.97
2018-12-27T22:16:18.234Z,37.50
2018-12-27T22:21:19.987Z,30.80
2018-12-27T22:26:21.984Z,32.33
2018-12-27T22:31:23.673Z,30.60
2018-12-27T22:36:25.347Z,33.10
2018-12-27T22:41:27.004Z,27.13
2018-12-27T22:46:28.944Z,40.07
2018-12-27T22:51:30.602Z,26.50
2018-12-27T22:56:32.576Z,27.07
2018-12-27T23:01:34.289Z,20.63
2018-12-27T23:06:36.506Z,22.03
2018-12-27T23:11:40.172Z,26.70
2018-12-27T23:16:44.421Z,22.27
2018-12-27T23:21:46.385Z,22.50
2018-12-27T23:26:49.503Z,19.47
2018-12-27T23:31:51.207Z,17.50
2018-12-27T23:36:52.869Z,18.00
2018-12-27T23:41:54.601Z,15.03
2018-12-27T23:46:56.779Z,17.93
2018-12-27T23:51:58.660Z,22.00
2018-12-27T23:57:03.940Z,20.57
